Flight Track Log - Related Links

Times and Time Zones

All times are in EDT time to prevent confusion due to time zone crossing. See the FIN3183 flight status page for this flight to view local times or setup timezone preferences in your user account.

Time Position Orientation Groundspeed Altitude Reporting Facility
EDT Latitude Longitude Course Direction KTS MPH feet Rate Location/Type
Sun 10:20:00 AM 60.0477 24.2120 235° Southwest  Level Estimated
Sun 10:21:00 AM 59.9797 24.0261 234° Southwest  Level Estimated
Sun 10:22:00 AM 59.9114 23.8410 234° Southwest  Level Estimated
Sun 10:23:00 AM 59.8428 23.6566 234° Southwest  Level Estimated
Sun 10:24:00 AM 59.7740 23.4730 233° Southwest  Level Estimated
Sun 10:25:00 AM 59.7050 23.2901 233° Southwest  Level Estimated
Sun 10:26:00 AM 59.6357 23.1080 233° Southwest  Level Estimated
Sun 10:27:00 AM 59.5661 22.9267 233° Southwest  Level Estimated
Sun 10:28:00 AM 59.4963 22.7461 233° Southwest  Level Estimated
Sun 10:29:00 AM 59.4262 22.5662 233° Southwest  Level Estimated
Sun 10:30:00 AM 59.3559 22.3871 232° Southwest  Level Estimated
Sun 10:31:00 AM 59.2853 22.2087 232° Southwest  Level Estimated
Sun 10:32:00 AM 59.2145 22.0311 232° Southwest  Level Estimated
Sun 10:33:00 AM 59.1435 21.8542 232° Southwest  Level Estimated
Sun 10:34:00 AM 59.0722 21.6780 232° Southwest  Level Estimated
Sun 10:35:00 AM 59.0007 21.5026 232° Southwest  Level Estimated
Sun 10:36:00 AM 58.9289 21.3279 232° Southwest  Level Estimated
Sun 10:37:00 AM 58.8569 21.1539 231° Southwest  Level Estimated
Sun 10:38:00 AM 58.7847 20.9807 231° Southwest  Level Estimated
Sun 10:39:00 AM 58.7123 20.8081 231° Southwest  Level Estimated
Sun 10:40:00 AM 58.6396 20.6363 231° Southwest  Level Estimated
Sun 10:41:00 AM 58.5667 20.4652 231° Southwest  Level Estimated
Sun 10:42:00 AM 58.4935 20.2948 231° Southwest  Level Estimated
Sun 10:43:00 AM 58.4202 20.1251 230° Southwest  Level Estimated
Sun 10:44:00 AM 58.3466 19.9562 230° Southwest  Level Estimated
Sun 10:45:00 AM 58.2728 19.7879 230° Southwest  Level Estimated
Sun 10:46:00 AM 58.1987 19.6203 230° Southwest  Level Estimated
Sun 10:47:00 AM 58.1245 19.4535 230° Southwest  Level Estimated
Sun 10:48:00 AM 58.0500 19.2873 230° Southwest  Level Estimated
Sun 10:49:00 AM 57.9754 19.1218 230° Southwest  Level Estimated
Sun 10:50:00 AM 57.9005 18.9570 230° Southwest  Level Estimated
Sun 10:51:00 AM 57.8254 18.7929 229° Southwest  Level Estimated
Sun 10:52:00 AM 57.7500 18.6295 229° Southwest  Level Estimated
Sun 10:53:00 AM 57.6745 18.4667 229° Southwest  Level Estimated
Sun 10:54:00 AM 57.5988 18.3047 229° Southwest  Level Estimated
Sun 10:55:00 AM 57.5229 18.1433 229° Southwest  Level Estimated
Sun 10:56:00 AM 57.4467 17.9825 229° Southwest  Level Estimated
Sun 10:57:00 AM 57.3703 17.8225 229° Southwest  Level Estimated
Sun 10:58:00 AM 57.2938 17.6631 228° Southwest  Level Estimated
Sun 10:59:00 AM 57.2170 17.5044 228° Southwest  Level Estimated
Sun 11:00:00 AM 57.1401 17.3463 228° Southwest  Level Estimated
Sun 11:01:00 AM 57.0630 17.1889 228° Southwest  Level Estimated
Sun 11:02:00 AM 56.9856 17.0322 228° Southwest  Level Estimated
Sun 11:03:00 AM 56.9081 16.8761 228° Southwest  Level Estimated
Sun 11:04:00 AM 56.8303 16.7206 228° Southwest  Level Estimated
Sun 11:05:00 AM 56.7524 16.5658 227° Southwest  Level Estimated
Sun 11:06:00 AM 56.6743 16.4116 227° Southwest  Level Estimated
Sun 11:07:00 AM 56.5960 16.2581 227° Southwest  Level Estimated
Sun 11:08:00 AM 56.5175 16.1052 227° Southwest  Level Estimated
Sun 11:09:00 AM 56.4388 15.9529 227° Southwest  Level Estimated
Sun 11:10:00 AM 56.3599 15.8013 227° Southwest  Level Estimated
Sun 11:11:00 AM 56.2809 15.6503 227° Southwest  Level Estimated
Sun 11:12:00 AM 56.2016 15.4999 227° Southwest  Level Estimated
Sun 11:13:00 AM 56.1222 15.3502 226° Southwest  Level Estimated
Sun 11:14:00 AM 56.0426 15.2010 226° Southwest  Level Estimated
Sun 11:15:00 AM 55.9628 15.0525 226° Southwest  Level Estimated
Sun 11:16:00 AM 55.8829 14.9046 226° Southwest  Level Estimated
Sun 11:17:00 AM 55.8028 14.7573 226° Southwest  Level Estimated
Sun 11:18:00 AM 55.7225 14.6106 226° Southwest  Level Estimated
Sun 11:19:00 AM 55.6420 14.4645 226° Southwest  Level Estimated
Sun 11:20:00 AM 55.5613 14.3190 226° Southwest  Level Estimated
Sun 11:21:00 AM 55.4805 14.1741 225° Southwest  Level Estimated
Sun 11:22:00 AM 55.3995 14.0298 225° Southwest  Level Estimated
Sun 11:23:00 AM 55.3183 13.8861 225° Southwest  Level Estimated
Sun 11:24:00 AM 55.2370 13.7429 225° Southwest  Level Estimated
Sun 11:25:00 AM 55.1555 13.6004 225° Southwest  Level Estimated
Sun 11:26:00 AM 55.0738 13.4584 225° Southwest  Level Estimated
Sun 11:27:00 AM 54.9920 13.3170 225° Southwest  Level Estimated
Sun 11:28:00 AM 54.9100 13.1762 225° Southwest  Level Estimated
Sun 11:29:00 AM 54.8279 13.0360 225° Southwest  Level Estimated
Sun 11:30:00 AM 54.7455 12.8963 224° Southwest  Level Estimated
Sun 11:31:00 AM 54.6631 12.7572 224° Southwest  Level Estimated
Sun 11:32:00 AM 54.5804 12.6187 224° Southwest  Level Estimated
Sun 11:33:00 AM 54.4977 12.4807 224° Southwest  Level Estimated
Sun 11:34:00 AM 54.4147 12.3433 224° Southwest  Level Estimated
Sun 11:35:00 AM 54.3316 12.2065 224° Southwest  Level Estimated
Sun 11:36:00 AM 54.2483 12.0702 224° Southwest  Level Estimated
Sun 11:37:00 AM 54.1649 11.9344 224° Southwest  Level Estimated
Sun 11:38:00 AM 54.0814 11.7992 224° Southwest  Level Estimated
Sun 11:39:00 AM 53.9977 11.6645 223° Southwest  Level Estimated
Sun 11:40:00 AM 53.9138 11.5304 223° Southwest  Level Estimated
Sun 11:41:00 AM 53.8298 11.3968 223° Southwest  Level Estimated
Sun 11:42:00 AM 53.7456 11.2638 223° Southwest  Level Estimated
Sun 11:43:00 AM 53.6613 11.1313 223° Southwest  Level Estimated
Sun 11:44:00 AM 53.5769 10.9993 223° Southwest  Level Estimated
Sun 11:45:00 AM 53.4923 10.8678 223° Southwest  Level Estimated
Sun 11:46:00 AM 53.4075 10.7369 223° Southwest  Level Estimated
Sun 11:47:00 AM 53.3226 10.6065 223° Southwest  Level Estimated
Sun 11:48:00 AM 53.2376 10.4766 222° Southwest  Level Estimated
Sun 11:49:00 AM 53.1524 10.3472 222° Southwest  Level Estimated
Sun 11:50:00 AM 53.0671 10.2183 222° Southwest  Level Estimated
Sun 11:51:00 AM 52.9817 10.0899 222° Southwest  Level Estimated
Sun 11:52:00 AM 52.8961 9.9621 222° Southwest  Level Estimated
Sun 11:53:00 AM 52.8104 9.8347 222° Southwest  Level Estimated
Sun 11:54:00 AM 52.7245 9.7079 222° Southwest  Level Estimated
Sun 11:55:00 AM 52.6385 9.5815 222° Southwest  Level Estimated
Sun 11:56:00 AM 52.5524 9.4557 222° Southwest  Level Estimated
Sun 11:57:00 AM 52.4662 9.3303 222° Southwest  Level Estimated
Sun 11:58:00 AM 52.3798 9.2055 221° Southwest  Level Estimated
Sun 11:59:00 AM 52.2933 9.0811 221° Southwest  Level Estimated
Sun 12:00:00 PM 52.2066 8.9572 221° Southwest  Level Estimated
Sun 12:01:00 PM 52.1198 8.8338 221° Southwest  Level Estimated
Sun 12:02:00 PM 52.0329 8.7108 221° Southwest  Level Estimated
Sun 12:03:00 PM 51.9459 8.5884 221° Southwest  Level Estimated
Sun 12:04:00 PM 51.8587 8.4664 221° Southwest  Level Estimated
Sun 12:05:00 PM 51.7714 8.3449 221° Southwest  Level Estimated
Sun 12:06:00 PM 51.6840 8.2239 221° Southwest  Level Estimated
Sun 12:07:00 PM 51.5965 8.1033 221° Southwest  Level Estimated
Sun 12:08:00 PM 51.5088 7.9832 220° Southwest  Level Estimated
Sun 12:09:00 PM 51.4211 7.8635 220° Southwest  Level Estimated
Sun 12:10:00 PM 51.3331 7.7443 220° Southwest  Level Estimated
Sun 12:11:00 PM 51.2451 7.6256 220° Southwest  Level Estimated
Sun 12:12:00 PM 51.1570 7.5073 220° Southwest  Level Estimated
Sun 12:13:00 PM 51.0687 7.3895 220° Southwest  Level Estimated
Sun 12:14:00 PM 50.9803 7.2721 220° Southwest  Level Estimated
Sun 12:15:00 PM 50.8918 7.1552 220° Southwest  Level Estimated
Sun 12:16:00 PM 50.8032 7.0387 220° Southwest  Level Estimated
Sun 12:17:00 PM 50.7145 6.9227 220° Southwest  Level Estimated
Sun 12:18:00 PM 50.6257 6.8071 220° Southwest  Level Estimated
Sun 12:19:00 PM 50.5367 6.6919 219° Southwest  Level Estimated
Sun 12:20:00 PM 50.4476 6.5771 219° Southwest  Level Estimated
Sun 12:21:00 PM 50.3585 6.4629 219° Southwest  Level Estimated
Sun 12:22:00 PM 50.2692 6.3490 219° Southwest  Level Estimated
Sun 12:23:00 PM 50.1798 6.2355 219° Southwest  Level Estimated
Sun 12:24:00 PM 50.0902 6.1225 219° Southwest  Level Estimated
Sun 12:25:00 PM 50.0006 6.0099 219° Southwest  Level Estimated
Sun 12:26:00 PM 49.9109 5.8977 219° Southwest  Level Estimated
Sun 12:27:00 PM 49.8210 5.7859 219° Southwest  Level Estimated
Sun 12:28:00 PM 49.7311 5.6746 219° Southwest  Level Estimated
Sun 12:29:00 PM 49.6410 5.5637 219° Southwest  Level Estimated
Sun 12:30:00 PM 49.5509 5.4531 219° Southwest  Level Estimated
Sun 12:31:00 PM 49.4606 5.3430 218° Southwest  Level Estimated
Sun 12:32:00 PM 49.3703 5.2333 218° Southwest  Level Estimated
Sun 12:33:00 PM 49.2798 5.1240 218° Southwest  Level Estimated
Sun 12:34:00 PM 49.1892 5.0150 218° Southwest  Level Estimated
Sun 12:35:00 PM 49.0985 4.9065 218° Southwest  Level Estimated
Sun 12:36:00 PM 49.0078 4.7984 218° Southwest  Level Estimated
Sun 12:37:00 PM 48.9169 4.6907 218° Southwest  Level Estimated
Sun 12:38:00 PM 48.8259 4.5833 218° Southwest  Level Estimated
Sun 12:39:00 PM 48.7348 4.4764 218° Southwest  Level Estimated
Sun 12:40:00 PM 48.6436 4.3698 218° Southwest  Level Estimated
Sun 12:41:00 PM 48.5524 4.2637 218° Southwest  Level Estimated
Sun 12:42:00 PM 48.4610 4.1579 218° Southwest  Level Estimated
Sun 12:43:00 PM 48.3695 4.0525 217° Southwest  Level Estimated
Sun 12:44:00 PM 48.2780 3.9474 217° Southwest  Level Estimated
Sun 12:45:00 PM 48.1863 3.8428 217° Southwest  Level Estimated
Sun 12:46:00 PM 48.0945 3.7385 217° Southwest  Level Estimated
Sun 12:47:00 PM 48.0027 3.6346 217° Southwest  Level Estimated
Sun 12:48:00 PM 47.9108 3.5310 217° Southwest  Level Estimated
Sun 12:49:00 PM 47.8187 3.4279 217° Southwest  Level Estimated
Sun 12:50:00 PM 47.7266 3.3251 217° Southwest  Level Estimated
Sun 12:51:00 PM 47.6344 3.2226 217° Southwest  Level Estimated
Sun 12:52:00 PM 47.5421 3.1205 217° Southwest  Level Estimated
Sun 12:53:00 PM 47.4497 3.0188 217° Southwest  Level Estimated
Sun 12:54:00 PM 47.3572 2.9174 217° Southwest  Level Estimated
Sun 12:55:00 PM 47.2646 2.8164 217° Southwest  Level Estimated
Sun 12:56:00 PM 47.1719 2.7157 216° Southwest  Level Estimated
Sun 12:57:00 PM 47.0792 2.6154 216° Southwest  Level Estimated
Sun 12:58:00 PM 46.9863 2.5155 216° Southwest  Level Estimated
Sun 12:59:00 PM 46.8934 2.4159 216° Southwest  Level Estimated
Sun 01:00:00 PM 46.8004 2.3166 216° Southwest  Level Estimated
Sun 01:01:00 PM 46.7073 2.2177 216° Southwest  Level Estimated
Sun 01:02:00 PM 46.6141 2.1191 216° Southwest  Level Estimated
Sun 01:03:00 PM 46.5208 2.0208 216° Southwest  Level Estimated
Sun 01:04:00 PM 46.4275 1.9229 216° Southwest  Level Estimated
Sun 01:05:00 PM 46.3340 1.8254 216° Southwest  Level Estimated
Sun 01:06:00 PM 46.2405 1.7281 216° Southwest  Level Estimated
Sun 01:07:00 PM 46.1469 1.6312 216° Southwest  Level Estimated
Sun 01:08:00 PM 46.0532 1.5346 216° Southwest  Level Estimated
Sun 01:09:00 PM 45.9595 1.4384 216° Southwest  Level Estimated
Sun 01:10:00 PM 45.8656 1.3424 215° Southwest  Level Estimated
Sun 01:11:00 PM 45.7717 1.2468 215° Southwest  Level Estimated
Sun 01:12:00 PM 45.6777 1.1515 215° Southwest  Level Estimated
Sun 01:13:00 PM 45.5836 1.0566 215° Southwest  Level Estimated
Sun 01:14:00 PM 45.4895 0.9619 215° Southwest  Level Estimated
Sun 01:15:00 PM 45.3952 0.8676 215° Southwest  Level Estimated
Sun 01:16:00 PM 45.3009 0.7736 215° Southwest  Level Estimated
Sun 01:17:00 PM 45.2065 0.6799 215° Southwest  Level Estimated
Sun 01:18:00 PM 45.1120 0.5865 215° Southwest  Level Estimated
Sun 01:19:00 PM 45.0175 0.4934 215° Southwest  Level Estimated
Sun 01:20:00 PM 44.9229 0.4006 215° Southwest  Level Estimated
Sun 01:21:00 PM 44.8282 0.3081 215° Southwest  Level Estimated
Sun 01:22:00 PM 44.7334 0.2160 215° Southwest  Level Estimated
Sun 01:23:00 PM 44.6402 0.1257 215° Southwest  Level Estimated
Sun 01:24:00 PM 44.5469 0.0357 215° Southwest  Level Estimated
Sun 01:25:00 PM 44.4535 -0.0541 214° Southwest  Level Estimated
Sun 01:26:00 PM 44.3601 -0.1435 214° Southwest  Level Estimated
Sun 01:27:00 PM 44.2666 -0.2326 214° Southwest  Level Estimated
Sun 01:28:00 PM 44.1730 -0.3215 214° Southwest  Level Estimated
Sun 01:29:00 PM 44.0794 -0.4101 214° Southwest  Level Estimated
Sun 01:30:00 PM 43.9857 -0.4984 214° Southwest  Level Estimated
Sun 01:31:00 PM 43.8919 -0.5864 214° Southwest  Level Estimated
Sun 01:32:00 PM 43.7980 -0.6742 214° Southwest  Level Estimated
Sun 01:33:00 PM 43.7041 -0.7617 214° Southwest  Level Estimated
Sun 01:34:00 PM 43.6102 -0.8489 214° Southwest  Level Estimated
Sun 01:35:00 PM 43.5161 -0.9358 214° Southwest  Level Estimated
Sun 01:36:00 PM 43.4220 -1.0224 214° Southwest  Level Estimated
Sun 01:37:00 PM 43.3278 -1.1088 214° Southwest  Level Estimated
Sun 01:38:00 PM 43.2336 -1.1949 214° Southwest  Level Estimated
Sun 01:39:00 PM 43.1393 -1.2808 214° Southwest  Level Estimated
Sun 01:40:00 PM 43.0449 -1.3664 214° Southwest  Level Estimated
Sun 01:41:00 PM 42.9505 -1.4517 213° Southwest  Level Estimated
Sun 01:42:00 PM 42.8560 -1.5368 213° Southwest  Level Estimated
Sun 01:43:00 PM 42.7614 -1.6216 213° Southwest  Level Estimated
Sun 01:44:00 PM 42.6668 -1.7061 213° Southwest  Level Estimated
Sun 01:45:00 PM 42.5721 -1.7904 213° Southwest  Level Estimated
Sun 01:46:00 PM 42.4774 -1.8745 213° Southwest  Level Estimated
Sun 01:47:00 PM 42.3826 -1.9583 213° Southwest  Level Estimated
Sun 01:48:00 PM 42.2877 -2.0418 213° Southwest  Level Estimated
Sun 01:49:00 PM 42.1928 -2.1251 213° Southwest  Level Estimated
Sun 01:50:00 PM 42.0978 -2.2081 213° Southwest  Level Estimated
Sun 01:51:00 PM 42.0028 -2.2909 213° Southwest  Level Estimated
Sun 01:52:00 PM 41.9077 -2.3734 213° Southwest  Level Estimated
Sun 01:53:00 PM 41.8125 -2.4557 213° Southwest  Level Estimated
Sun 01:54:00 PM 41.7173 -2.5377 213° Southwest  Level Estimated
Sun 01:55:00 PM 41.6220 -2.6195 213° Southwest  Level Estimated
Sun 01:56:00 PM 41.5266 -2.7011 213° Southwest  Level Estimated
Sun 01:57:00 PM 41.4313 -2.7824 213° Southwest  Level Estimated
Sun 01:58:00 PM 41.3358 -2.8635 213° Southwest  Level Estimated
Sun 01:59:00 PM 41.2403 -2.9443 212° Southwest  Level Estimated
Sun 02:00:00 PM 41.1447 -3.0249 212° Southwest  Level Estimated
Sun 02:01:00 PM 41.0491 -3.1053 212° Southwest  Level Estimated
Sun 02:02:00 PM 40.9534 -3.1854 212° Southwest  Level Estimated
Sun 02:03:00 PM 40.8577 -3.2653 212° Southwest  Level Estimated
Sun 02:04:00 PM 40.7619 -3.3450 212° Southwest  Level Estimated
Sun 02:05:00 PM 40.6661 -3.4244 212° Southwest  Level Estimated
Sun 02:06:00 PM 40.5702 -3.5037 212° Southwest  Level Estimated
Sun 02:07:00 PM 40.4936 -3.5668 212° Southwest  Level Estimated
Sun 02:08:00 PM 40.4936 -3.5668 North  Level Estimated
Sun 02:09:00 PM 40.4936 -3.5668 North  Level Estimated
Sun 02:10:00 PM 40.4936 -3.5668 North  Level Estimated
Sun 02:11:00 PM 40.4936 -3.5668 North  Level Estimated
Sun 02:12:00 PM 40.4936 -3.5668 North  Level Estimated
Sun 02:13:00 PM 40.4936 -3.5668 North  Level Estimated
Sun 02:14:00 PM 40.4936 -3.5668 North  Level Estimated
Sun 02:15:00 PM 40.4936 -3.5668 North  Level Estimated
Sun 02:16:00 PM 40.4936 -3.5668 North  Level Estimated
Sun 02:17:00 PM 40.4936 -3.5668 North  Level Estimated
Sun 02:18:00 PM 40.4936 -3.5668 North  Level Estimated

Login

Don't have an account? Register now (free) for customized features, flight alerts, and more!